sensor_id;sensor_type;location;lat;lon;timestamp;P1;durP1;ratioP1;P2;durP2;ratioP2
29358;SDS011;16347;53.232;6.556;2023-02-28T00:01:25;13.00;;;2.63;;
29358;SDS011;16347;53.232;6.556;2023-02-28T00:03:54;8.73;;;2.03;;
29358;SDS011;16347;53.232;6.556;2023-02-28T00:06:22;15.52;;;2.42;;
29358;SDS011;16347;53.232;6.556;2023-02-28T00:08:51;8.85;;;2.53;;
29358;SDS011;16347;53.232;6.556;2023-02-28T00:11:19;13.63;;;2.25;;
29358;SDS011;16347;53.232;6.556;2023-02-28T00:13:48;11.55;;;2.33;;
29358;SDS011;16347;53.232;6.556;2023-02-28T00:16:17;13.88;;;2.97;;
29358;SDS011;16347;53.232;6.556;2023-02-28T00:18:47;10.45;;;2.53;;
29358;SDS011;16347;53.232;6.556;2023-02-28T00:21:16;15.95;;;2.53;;
29358;SDS011;16347;53.232;6.556;2023-02-28T00:23:45;9.07;;;2.25;;
29358;SDS011;16347;53.232;6.556;2023-02-28T00:26:13;11.80;;;2.60;;
29358;SDS011;16347;53.232;6.556;2023-02-28T00:28:44;14.95;;;2.60;;
29358;SDS011;16347;53.232;6.556;2023-02-28T00:31:12;8.80;;;1.95;;
29358;SDS011;16347;53.232;6.556;2023-02-28T00:33:40;7.07;;;2.25;;
29358;SDS011;16347;53.232;6.556;2023-02-28T00:36:10;9.73;;;2.42;;
29358;SDS011;16347;53.232;6.556;2023-02-28T00:38:40;9.20;;;2.20;;
29358;SDS011;16347;53.232;6.556;2023-02-28T00:41:09;16.48;;;3.05;;
29358;SDS011;16347;53.232;6.556;2023-02-28T00:43:37;9.25;;;2.65;;
29358;SDS011;16347;53.232;6.556;2023-02-28T00:46:06;9.38;;;2.33;;
29358;SDS011;16347;53.232;6.556;2023-02-28T00:48:34;12.23;;;2.13;;
29358;SDS011;16347;53.232;6.556;2023-02-28T00:51:03;8.73;;;2.80;;
29358;SDS011;16347;53.232;6.556;2023-02-28T00:53:33;11.70;;;2.60;;
29358;SDS011;16347;53.232;6.556;2023-02-28T00:56:01;9.93;;;2.20;;
29358;SDS011;16347;53.232;6.556;2023-02-28T00:58:30;8.82;;;2.33;;
29358;SDS011;16347;53.232;6.556;2023-02-28T01:00:58;12.40;;;2.30;;
29358;SDS011;16347;53.232;6.556;2023-02-28T01:03:26;6.68;;;2.03;;
29358;SDS011;16347;53.232;6.556;2023-02-28T01:05:54;11.30;;;2.00;;
29358;SDS011;16347;53.232;6.556;2023-02-28T01:08:22;14.10;;;1.85;;
29358;SDS011;16347;53.232;6.556;2023-02-28T01:10:52;12.93;;;2.35;;
29358;SDS011;16347;53.232;6.556;2023-02-28T01:13:21;8.18;;;2.40;;
29358;SDS011;16347;53.232;6.556;2023-02-28T01:15:50;10.90;;;2.38;;
29358;SDS011;16347;53.232;6.556;2023-02-28T01:18:20;9.02;;;2.20;;
29358;SDS011;16347;53.232;6.556;2023-02-28T01:20:50;13.20;;;3.00;;
29358;SDS011;16347;53.232;6.556;2023-02-28T01:23:19;11.85;;;2.40;;
29358;SDS011;16347;53.232;6.556;2023-02-28T01:25:48;11.10;;;1.92;;
29358;SDS011;16347;53.232;6.556;2023-02-28T01:28:17;10.65;;;1.80;;
29358;SDS011;16347;53.232;6.556;2023-02-28T01:30:47;9.98;;;2.42;;
29358;SDS011;16347;53.232;6.556;2023-02-28T01:33:16;13.07;;;2.22;;
29358;SDS011;16347;53.232;6.556;2023-02-28T01:35:44;15.10;;;2.45;;
29358;SDS011;16347;53.232;6.556;2023-02-28T01:38:12;12.88;;;2.40;;
29358;SDS011;16347;53.232;6.556;2023-02-28T01:40:48;7.85;;;1.80;;
29358;SDS011;16347;53.232;6.556;2023-02-28T01:43:19;9.15;;;1.90;;
29358;SDS011;16347;53.232;6.556;2023-02-28T01:45:49;10.75;;;1.60;;
29358;SDS011;16347;53.232;6.556;2023-02-28T01:48:18;11.57;;;1.90;;
29358;SDS011;16347;53.232;6.556;2023-02-28T01:50:50;8.32;;;1.80;;
29358;SDS011;16347;53.232;6.556;2023-02-28T01:53:19;9.30;;;1.48;;
29358;SDS011;16347;53.232;6.556;2023-02-28T01:58:23;10.70;;;2.05;;
29358;SDS011;16347;53.232;6.556;2023-02-28T02:00:51;8.48;;;1.60;;
29358;SDS011;16347;53.232;6.556;2023-02-28T02:03:20;10.15;;;1.75;;
29358;SDS011;16347;53.232;6.556;2023-02-28T02:05:48;8.10;;;1.48;;
29358;SDS011;16347;53.232;6.556;2023-02-28T02:08:17;10.73;;;1.65;;
29358;SDS011;16347;53.232;6.556;2023-02-28T02:10:48;6.18;;;1.42;;
29358;SDS011;16347;53.232;6.556;2023-02-28T02:16:24;7.95;;;2.10;;
29358;SDS011;16347;53.232;6.556;2023-02-28T02:19:04;8.82;;;2.42;;
29358;SDS011;16347;53.232;6.556;2023-02-28T02:21:47;8.40;;;1.60;;
29358;SDS011;16347;53.232;6.556;2023-02-28T02:24:45;9.38;;;1.95;;
29358;SDS011;16347;53.232;6.556;2023-02-28T02:33:19;8.32;;;1.90;;
29358;SDS011;16347;53.232;6.556;2023-02-28T02:36:08;10.32;;;1.95;;
29358;SDS011;16347;53.232;6.556;2023-02-28T02:38:45;5.35;;;1.50;;
29358;SDS011;16347;53.232;6.556;2023-02-28T02:41:19;7.97;;;1.70;;
29358;SDS011;16347;53.232;6.556;2023-02-28T02:43:56;14.90;;;2.00;;
29358;SDS011;16347;53.232;6.556;2023-02-28T02:46:31;7.90;;;1.92;;
29358;SDS011;16347;53.232;6.556;2023-02-28T02:49:03;15.68;;;2.08;;
29358;SDS011;16347;53.232;6.556;2023-02-28T02:51:37;8.05;;;1.55;;
29358;SDS011;16347;53.232;6.556;2023-02-28T02:54:08;9.77;;;1.75;;
29358;SDS011;16347;53.232;6.556;2023-02-28T02:56:41;9.60;;;2.13;;
29358;SDS011;16347;53.232;6.556;2023-02-28T02:59:12;10.32;;;1.75;;
29358;SDS011;16347;53.232;6.556;2023-02-28T03:01:49;6.15;;;1.25;;
29358;SDS011;16347;53.232;6.556;2023-02-28T03:04:20;11.10;;;1.55;;
29358;SDS011;16347;53.232;6.556;2023-02-28T03:06:51;7.30;;;1.77;;
29358;SDS011;16347;53.232;6.556;2023-02-28T03:09:21;5.00;;;1.27;;
29358;SDS011;16347;53.232;6.556;2023-02-28T03:11:49;4.65;;;1.30;;
29358;SDS011;16347;53.232;6.556;2023-02-28T03:14:22;7.63;;;1.50;;
29358;SDS011;16347;53.232;6.556;2023-02-28T03:17:00;7.00;;;1.38;;
29358;SDS011;16347;53.232;6.556;2023-02-28T03:19:44;9.95;;;1.50;;
29358;SDS011;16347;53.232;6.556;2023-02-28T03:22:27;4.75;;;1.27;;
29358;SDS011;16347;53.232;6.556;2023-02-28T03:25:10;11.00;;;1.75;;
29358;SDS011;16347;53.232;6.556;2023-02-28T03:27:47;7.65;;;1.80;;
29358;SDS011;16347;53.232;6.556;2023-02-28T03:30:24;8.70;;;1.85;;
29358;SDS011;16347;53.232;6.556;2023-02-28T03:32:58;12.55;;;2.33;;
29358;SDS011;16347;53.232;6.556;2023-02-28T03:35:34;5.53;;;2.63;;
29358;SDS011;16347;53.232;6.556;2023-02-28T03:38:08;11.45;;;2.70;;
29358;SDS011;16347;53.232;6.556;2023-02-28T03:40:42;7.70;;;3.63;;
29358;SDS011;16347;53.232;6.556;2023-02-28T03:43:14;7.93;;;3.50;;
29358;SDS011;16347;53.232;6.556;2023-02-28T03:45:49;8.68;;;3.05;;
29358;SDS011;16347;53.232;6.556;2023-02-28T03:48:19;5.63;;;3.47;;
29358;SDS011;16347;53.232;6.556;2023-02-28T03:50:54;11.20;;;3.90;;
29358;SDS011;16347;53.232;6.556;2023-02-28T03:53:27;7.40;;;3.55;;
29358;SDS011;16347;53.232;6.556;2023-02-28T03:56:00;11.35;;;4.95;;
29358;SDS011;16347;53.232;6.556;2023-02-28T03:58:35;8.73;;;5.10;;
29358;SDS011;16347;53.232;6.556;2023-02-28T04:01:10;7.90;;;4.90;;
29358;SDS011;16347;53.232;6.556;2023-02-28T04:03:43;9.57;;;5.55;;
29358;SDS011;16347;53.232;6.556;2023-02-28T04:06:13;8.75;;;4.82;;
29358;SDS011;16347;53.232;6.556;2023-02-28T04:08:45;11.48;;;5.97;;
29358;SDS011;16347;53.232;6.556;2023-02-28T04:11:17;9.88;;;5.80;;
29358;SDS011;16347;53.232;6.556;2023-02-28T04:13:48;9.57;;;5.60;;
29358;SDS011;16347;53.232;6.556;2023-02-28T04:16:17;11.27;;;6.03;;
29358;SDS011;16347;53.232;6.556;2023-02-28T04:18:59;11.15;;;5.78;;
29358;SDS011;16347;53.232;6.556;2023-02-28T04:21:30;9.60;;;5.82;;
29358;SDS011;16347;53.232;6.556;2023-02-28T04:24:01;9.60;;;5.85;;
29358;SDS011;16347;53.232;6.556;2023-02-28T04:26:29;11.43;;;5.72;;
29358;SDS011;16347;53.232;6.556;2023-02-28T04:28:58;11.07;;;5.55;;
29358;SDS011;16347;53.232;6.556;2023-02-28T04:31:26;8.88;;;5.55;;
29358;SDS011;16347;53.232;6.556;2023-02-28T04:33:55;8.50;;;4.97;;
29358;SDS011;16347;53.232;6.556;2023-02-28T04:36:23;8.63;;;4.65;;
29358;SDS011;16347;53.232;6.556;2023-02-28T04:38:52;10.88;;;4.78;;
29358;SDS011;16347;53.232;6.556;2023-02-28T04:41:21;7.30;;;4.50;;
29358;SDS011;16347;53.232;6.556;2023-02-28T04:43:50;7.78;;;4.22;;
29358;SDS011;16347;53.232;6.556;2023-02-28T04:46:19;9.95;;;4.60;;
29358;SDS011;16347;53.232;6.556;2023-02-28T04:48:47;5.50;;;4.20;;
29358;SDS011;16347;53.232;6.556;2023-02-28T04:51:16;8.15;;;4.78;;
29358;SDS011;16347;53.232;6.556;2023-02-28T04:53:46;8.52;;;4.35;;
29358;SDS011;16347;53.232;6.556;2023-02-28T04:56:15;5.35;;;3.78;;
29358;SDS011;16347;53.232;6.556;2023-02-28T04:58:46;7.50;;;4.25;;
29358;SDS011;16347;53.232;6.556;2023-02-28T05:01:19;5.35;;;3.92;;
29358;SDS011;16347;53.232;6.556;2023-02-28T05:03:49;6.03;;;3.63;;
29358;SDS011;16347;53.232;6.556;2023-02-28T05:06:19;6.20;;;3.83;;
29358;SDS011;16347;53.232;6.556;2023-02-28T05:08:48;8.43;;;4.32;;
29358;SDS011;16347;53.232;6.556;2023-02-28T05:11:17;7.72;;;4.63;;
29358;SDS011;16347;53.232;6.556;2023-02-28T05:13:48;8.80;;;3.90;;
29358;SDS011;16347;53.232;6.556;2023-02-28T05:16:16;10.38;;;4.20;;
29358;SDS011;16347;53.232;6.556;2023-02-28T05:18:45;7.10;;;4.43;;
29358;SDS011;16347;53.232;6.556;2023-02-28T05:24:04;7.47;;;4.00;;
29358;SDS011;16347;53.232;6.556;2023-02-28T05:26:34;7.57;;;4.20;;
29358;SDS011;16347;53.232;6.556;2023-02-28T05:29:04;6.35;;;3.85;;
29358;SDS011;16347;53.232;6.556;2023-02-28T05:31:33;6.97;;;4.22;;
29358;SDS011;16347;53.232;6.556;2023-02-28T05:34:02;8.38;;;4.68;;
29358;SDS011;16347;53.232;6.556;2023-02-28T05:36:31;10.30;;;4.60;;
29358;SDS011;16347;53.232;6.556;2023-02-28T05:38:59;9.00;;;4.78;;
29358;SDS011;16347;53.232;6.556;2023-02-28T05:41:27;8.60;;;4.65;;
29358;SDS011;16347;53.232;6.556;2023-02-28T05:43:55;7.75;;;4.13;;
29358;SDS011;16347;53.232;6.556;2023-02-28T05:46:27;13.05;;;5.30;;
29358;SDS011;16347;53.232;6.556;2023-02-28T05:48:55;8.85;;;5.35;;
29358;SDS011;16347;53.232;6.556;2023-02-28T05:51:26;9.88;;;5.38;;
29358;SDS011;16347;53.232;6.556;2023-02-28T05:53:58;11.00;;;5.35;;
29358;SDS011;16347;53.232;6.556;2023-02-28T05:56:26;10.55;;;5.47;;
29358;SDS011;16347;53.232;6.556;2023-02-28T05:58:54;8.82;;;5.20;;
29358;SDS011;16347;53.232;6.556;2023-02-28T06:01:24;11.90;;;5.72;;
29358;SDS011;16347;53.232;6.556;2023-02-28T06:04:05;8.55;;;5.40;;
29358;SDS011;16347;53.232;6.556;2023-02-28T06:06:51;10.38;;;6.13;;
29358;SDS011;16347;53.232;6.556;2023-02-28T06:09:20;9.27;;;6.07;;
29358;SDS011;16347;53.232;6.556;2023-02-28T06:11:48;11.93;;;6.43;;
29358;SDS011;16347;53.232;6.556;2023-02-28T06:14:17;13.55;;;7.30;;
29358;SDS011;16347;53.232;6.556;2023-02-28T06:16:47;10.82;;;6.30;;
29358;SDS011;16347;53.232;6.556;2023-02-28T06:19:16;10.82;;;6.35;;
29358;SDS011;16347;53.232;6.556;2023-02-28T06:21:44;9.88;;;6.05;;
29358;SDS011;16347;53.232;6.556;2023-02-28T06:24:12;10.48;;;6.70;;
29358;SDS011;16347;53.232;6.556;2023-02-28T06:26:40;13.98;;;7.68;;
29358;SDS011;16347;53.232;6.556;2023-02-28T06:29:09;15.38;;;7.25;;
29358;SDS011;16347;53.232;6.556;2023-02-28T06:31:37;9.18;;;6.15;;
29358;SDS011;16347;53.232;6.556;2023-02-28T06:34:07;13.25;;;7.18;;
29358;SDS011;16347;53.232;6.556;2023-02-28T06:36:38;13.80;;;5.65;;
29358;SDS011;16347;53.232;6.556;2023-02-28T06:39:06;11.60;;;6.35;;
29358;SDS011;16347;53.232;6.556;2023-02-28T06:41:34;12.23;;;6.30;;
29358;SDS011;16347;53.232;6.556;2023-02-28T06:44:20;9.93;;;6.40;;
29358;SDS011;16347;53.232;6.556;2023-02-28T06:46:48;12.90;;;6.53;;
29358;SDS011;16347;53.232;6.556;2023-02-28T06:49:18;8.93;;;6.07;;
29358;SDS011;16347;53.232;6.556;2023-02-28T06:51:47;12.15;;;6.05;;
29358;SDS011;16347;53.232;6.556;2023-02-28T06:54:16;11.15;;;6.15;;
29358;SDS011;16347;53.232;6.556;2023-02-28T06:56:45;12.70;;;6.68;;
29358;SDS011;16347;53.232;6.556;2023-02-28T06:59:14;16.88;;;7.32;;
29358;SDS011;16347;53.232;6.556;2023-02-28T07:01:42;12.77;;;7.68;;
29358;SDS011;16347;53.232;6.556;2023-02-28T07:04:10;12.93;;;7.28;;
29358;SDS011;16347;53.232;6.556;2023-02-28T07:06:41;15.32;;;8.00;;
29358;SDS011;16347;53.232;6.556;2023-02-28T07:09:09;13.75;;;7.78;;
29358;SDS011;16347;53.232;6.556;2023-02-28T07:11:37;17.83;;;9.38;;
29358;SDS011;16347;53.232;6.556;2023-02-28T07:14:05;16.63;;;9.05;;
29358;SDS011;16347;53.232;6.556;2023-02-28T07:16:33;16.23;;;8.40;;
29358;SDS011;16347;53.232;6.556;2023-02-28T07:19:03;17.00;;;9.38;;
29358;SDS011;16347;53.232;6.556;2023-02-28T07:21:31;20.95;;;10.10;;
29358;SDS011;16347;53.232;6.556;2023-02-28T07:24:00;15.43;;;8.40;;
29358;SDS011;16347;53.232;6.556;2023-02-28T07:26:29;13.82;;;8.98;;
29358;SDS011;16347;53.232;6.556;2023-02-28T07:29:00;15.35;;;8.27;;
29358;SDS011;16347;53.232;6.556;2023-02-28T07:31:29;17.60;;;9.55;;
29358;SDS011;16347;53.232;6.556;2023-02-28T07:33:57;16.80;;;8.38;;
29358;SDS011;16347;53.232;6.556;2023-02-28T07:36:25;19.30;;;10.05;;
29358;SDS011;16347;53.232;6.556;2023-02-28T07:38:53;18.92;;;9.93;;
29358;SDS011;16347;53.232;6.556;2023-02-28T07:41:23;20.60;;;9.25;;
29358;SDS011;16347;53.232;6.556;2023-02-28T07:43:54;19.23;;;9.70;;
29358;SDS011;16347;53.232;6.556;2023-02-28T07:46:23;16.20;;;8.32;;
29358;SDS011;16347;53.232;6.556;2023-02-28T07:48:55;15.93;;;9.32;;
29358;SDS011;16347;53.232;6.556;2023-02-28T07:51:26;16.00;;;9.05;;
29358;SDS011;16347;53.232;6.556;2023-02-28T07:53:54;21.33;;;9.55;;
29358;SDS011;16347;53.232;6.556;2023-02-28T07:56:24;19.52;;;8.77;;
29358;SDS011;16347;53.232;6.556;2023-02-28T07:58:52;19.35;;;8.70;;
29358;SDS011;16347;53.232;6.556;2023-02-28T08:01:21;21.73;;;8.93;;
29358;SDS011;16347;53.232;6.556;2023-02-28T08:03:49;13.77;;;8.68;;
29358;SDS011;16347;53.232;6.556;2023-02-28T08:06:18;16.08;;;9.18;;
29358;SDS011;16347;53.232;6.556;2023-02-28T08:08:48;16.48;;;9.20;;
29358;SDS011;16347;53.232;6.556;2023-02-28T08:11:17;18.17;;;9.02;;
29358;SDS011;16347;53.232;6.556;2023-02-28T08:13:46;14.38;;;8.48;;
29358;SDS011;16347;53.232;6.556;2023-02-28T08:16:14;15.10;;;8.40;;
29358;SDS011;16347;53.232;6.556;2023-02-28T08:18:48;16.52;;;8.77;;
29358;SDS011;16347;53.232;6.556;2023-02-28T08:21:17;13.82;;;7.65;;
29358;SDS011;16347;53.232;6.556;2023-02-28T08:23:46;15.30;;;7.60;;
29358;SDS011;16347;53.232;6.556;2023-02-28T08:26:14;18.70;;;8.25;;
29358;SDS011;16347;53.232;6.556;2023-02-28T08:28:43;15.73;;;7.82;;
29358;SDS011;16347;53.232;6.556;2023-02-28T08:31:13;15.13;;;8.00;;
29358;SDS011;16347;53.232;6.556;2023-02-28T08:33:43;16.25;;;8.55;;
29358;SDS011;16347;53.232;6.556;2023-02-28T08:36:12;15.35;;;8.35;;
29358;SDS011;16347;53.232;6.556;2023-02-28T08:38:41;14.45;;;7.63;;
29358;SDS011;16347;53.232;6.556;2023-02-28T08:41:10;12.95;;;7.65;;
29358;SDS011;16347;53.232;6.556;2023-02-28T08:43:40;15.68;;;8.30;;
29358;SDS011;16347;53.232;6.556;2023-02-28T08:46:10;15.43;;;8.15;;
29358;SDS011;16347;53.232;6.556;2023-02-28T08:48:42;17.67;;;8.93;;
29358;SDS011;16347;53.232;6.556;2023-02-28T08:51:11;13.98;;;8.80;;
29358;SDS011;16347;53.232;6.556;2023-02-28T08:53:42;16.50;;;7.97;;
29358;SDS011;16347;53.232;6.556;2023-02-28T08:56:11;21.10;;;8.75;;
29358;SDS011;16347;53.232;6.556;2023-02-28T08:58:41;15.15;;;8.02;;
29358;SDS011;16347;53.232;6.556;2023-02-28T09:01:09;14.70;;;8.43;;
29358;SDS011;16347;53.232;6.556;2023-02-28T09:03:38;16.63;;;9.25;;
29358;SDS011;16347;53.232;6.556;2023-02-28T09:06:10;18.88;;;8.68;;
29358;SDS011;16347;53.232;6.556;2023-02-28T09:08:38;19.48;;;8.18;;
29358;SDS011;16347;53.232;6.556;2023-02-28T09:11:06;18.65;;;8.77;;
29358;SDS011;16347;53.232;6.556;2023-02-28T09:13:34;19.75;;;9.15;;
29358;SDS011;16347;53.232;6.556;2023-02-28T09:16:04;17.60;;;9.05;;
29358;SDS011;16347;53.232;6.556;2023-02-28T09:18:33;16.98;;;8.75;;
29358;SDS011;16347;53.232;6.556;2023-02-28T09:21:03;19.00;;;8.57;;
29358;SDS011;16347;53.232;6.556;2023-02-28T09:23:33;14.25;;;8.13;;
29358;SDS011;16347;53.232;6.556;2023-02-28T09:26:01;13.05;;;7.57;;
29358;SDS011;16347;53.232;6.556;2023-02-28T09:28:30;18.05;;;8.45;;
29358;SDS011;16347;53.232;6.556;2023-02-28T09:30:58;20.23;;;7.63;;
29358;SDS011;16347;53.232;6.556;2023-02-28T09:33:27;22.38;;;7.95;;
29358;SDS011;16347;53.232;6.556;2023-02-28T09:35:57;16.23;;;8.75;;
29358;SDS011;16347;53.232;6.556;2023-02-28T09:38:28;13.50;;;8.83;;
29358;SDS011;16347;53.232;6.556;2023-02-28T09:40:59;15.02;;;8.60;;
29358;SDS011;16347;53.232;6.556;2023-02-28T09:43:32;17.30;;;8.40;;
29358;SDS011;16347;53.232;6.556;2023-02-28T09:46:05;13.88;;;8.40;;
29358;SDS011;16347;53.232;6.556;2023-02-28T09:48:41;18.30;;;9.07;;
29358;SDS011;16347;53.232;6.556;2023-02-28T09:51:15;20.30;;;9.02;;
29358;SDS011;16347;53.232;6.556;2023-02-28T09:53:57;18.88;;;9.15;;
29358;SDS011;16347;53.232;6.556;2023-02-28T09:56:31;25.02;;;9.85;;
29358;SDS011;16347;53.232;6.556;2023-02-28T09:59:05;16.00;;;8.90;;
29358;SDS011;16347;53.232;6.556;2023-02-28T10:01:43;22.10;;;8.70;;
29358;SDS011;16347;53.232;6.556;2023-02-28T10:04:23;17.40;;;8.63;;
29358;SDS011;16347;53.232;6.556;2023-02-28T10:07:06;15.95;;;8.40;;
29358;SDS011;16347;53.232;6.556;2023-02-28T10:09:46;17.40;;;8.35;;
29358;SDS011;16347;53.232;6.556;2023-02-28T10:12:20;14.05;;;7.82;;
29358;SDS011;16347;53.232;6.556;2023-02-28T10:14:49;20.15;;;8.30;;
29358;SDS011;16347;53.232;6.556;2023-02-28T10:17:22;14.48;;;7.38;;
29358;SDS011;16347;53.232;6.556;2023-02-28T10:19:56;18.45;;;8.77;;
29358;SDS011;16347;53.232;6.556;2023-02-28T10:22:36;14.02;;;7.40;;
29358;SDS011;16347;53.232;6.556;2023-02-28T10:25:16;15.43;;;6.72;;
29358;SDS011;16347;53.232;6.556;2023-02-28T10:27:47;16.88;;;6.63;;
29358;SDS011;16347;53.232;6.556;2023-02-28T10:30:16;12.63;;;7.43;;
29358;SDS011;16347;53.232;6.556;2023-02-28T10:32:47;17.95;;;7.75;;
29358;SDS011;16347;53.232;6.556;2023-02-28T10:35:21;16.48;;;7.97;;
29358;SDS011;16347;53.232;6.556;2023-02-28T10:37:53;21.88;;;7.90;;
29358;SDS011;16347;53.232;6.556;2023-02-28T10:40:27;13.02;;;6.88;;
29358;SDS011;16347;53.232;6.556;2023-02-28T10:43:00;16.48;;;6.65;;
29358;SDS011;16347;53.232;6.556;2023-02-28T10:45:31;11.43;;;5.97;;
29358;SDS011;16347;53.232;6.556;2023-02-28T10:48:02;10.50;;;5.85;;
29358;SDS011;16347;53.232;6.556;2023-02-28T10:50:33;15.80;;;5.03;;
29358;SDS011;16347;53.232;6.556;2023-02-28T10:53:07;15.90;;;6.03;;
29358;SDS011;16347;53.232;6.556;2023-02-28T10:55:43;13.50;;;6.75;;
29358;SDS011;16347;53.232;6.556;2023-02-28T10:58:21;13.55;;;6.72;;
29358;SDS011;16347;53.232;6.556;2023-02-28T11:00:50;14.63;;;7.10;;
29358;SDS011;16347;53.232;6.556;2023-02-28T11:03:29;14.63;;;6.07;;
29358;SDS011;16347;53.232;6.556;2023-02-28T11:06:04;17.13;;;6.00;;
29358;SDS011;16347;53.232;6.556;2023-02-28T11:08:34;7.13;;;4.70;;
29358;SDS011;16347;53.232;6.556;2023-02-28T11:11:13;10.88;;;5.25;;
29358;SDS011;16347;53.232;6.556;2023-02-28T11:13:45;13.52;;;5.70;;
29358;SDS011;16347;53.232;6.556;2023-02-28T11:16:16;11.43;;;6.10;;
29358;SDS011;16347;53.232;6.556;2023-02-28T11:18:46;11.18;;;5.70;;
29358;SDS011;16347;53.232;6.556;2023-02-28T11:21:18;10.63;;;5.53;;
29358;SDS011;16347;53.232;6.556;2023-02-28T11:23:51;9.65;;;5.13;;
29358;SDS011;16347;53.232;6.556;2023-02-28T11:26:38;9.55;;;5.30;;
29358;SDS011;16347;53.232;6.556;2023-02-28T11:29:11;11.82;;;5.45;;
29358;SDS011;16347;53.232;6.556;2023-02-28T11:34:31;8.70;;;4.53;;
29358;SDS011;16347;53.232;6.556;2023-02-28T11:36:59;7.35;;;4.45;;
29358;SDS011;16347;53.232;6.556;2023-02-28T11:39:32;11.88;;;4.32;;
29358;SDS011;16347;53.232;6.556;2023-02-28T11:45:28;7.90;;;3.95;;
29358;SDS011;16347;53.232;6.556;2023-02-28T11:48:15;10.55;;;4.05;;
29358;SDS011;16347;53.232;6.556;2023-02-28T11:50:52;11.15;;;4.30;;
29358;SDS011;16347;53.232;6.556;2023-02-28T11:53:32;6.22;;;4.38;;
29358;SDS011;16347;53.232;6.556;2023-02-28T11:56:17;9.75;;;4.40;;
29358;SDS011;16347;53.232;6.556;2023-02-28T11:58:53;9.02;;;5.03;;
29358;SDS011;16347;53.232;6.556;2023-02-28T12:01:38;9.63;;;4.68;;
29358;SDS011;16347;53.232;6.556;2023-02-28T12:04:25;7.57;;;4.72;;
29358;SDS011;16347;53.232;6.556;2023-02-28T12:07:06;14.60;;;5.40;;
29358;SDS011;16347;53.232;6.556;2023-02-28T12:09:45;10.15;;;5.30;;
29358;SDS011;16347;53.232;6.556;2023-02-28T12:12:26;12.65;;;5.82;;
29358;SDS011;16347;53.232;6.556;2023-02-28T12:15:11;9.77;;;5.45;;
29358;SDS011;16347;53.232;6.556;2023-02-28T12:17:54;12.07;;;5.03;;
29358;SDS011;16347;53.232;6.556;2023-02-28T12:20:32;9.27;;;4.97;;
29358;SDS011;16347;53.232;6.556;2023-02-28T12:23:10;8.68;;;4.38;;
29358;SDS011;16347;53.232;6.556;2023-02-28T12:25:55;11.80;;;5.30;;
29358;SDS011;16347;53.232;6.556;2023-02-28T12:28:32;13.98;;;5.30;;
29358;SDS011;16347;53.232;6.556;2023-02-28T12:31:06;10.30;;;5.28;;
29358;SDS011;16347;53.232;6.556;2023-02-28T12:33:40;12.05;;;4.38;;
29358;SDS011;16347;53.232;6.556;2023-02-28T12:36:14;7.10;;;4.68;;
29358;SDS011;16347;53.232;6.556;2023-02-28T12:38:47;9.63;;;5.70;;
29358;SDS011;16347;53.232;6.556;2023-02-28T12:41:19;15.05;;;5.30;;
29358;SDS011;16347;53.232;6.556;2023-02-28T12:43:55;11.65;;;6.40;;
29358;SDS011;16347;53.232;6.556;2023-02-28T12:46:30;18.05;;;6.22;;
29358;SDS011;16347;53.232;6.556;2023-02-28T12:49:06;14.60;;;5.78;;
29358;SDS011;16347;53.232;6.556;2023-02-28T12:51:37;10.02;;;5.45;;
29358;SDS011;16347;53.232;6.556;2023-02-28T12:54:09;9.85;;;5.10;;
29358;SDS011;16347;53.232;6.556;2023-02-28T12:56:46;11.88;;;5.05;;
29358;SDS011;16347;53.232;6.556;2023-02-28T12:59:22;9.90;;;5.30;;
29358;SDS011;16347;53.232;6.556;2023-02-28T13:02:00;8.00;;;4.43;;
29358;SDS011;16347;53.232;6.556;2023-02-28T13:10:51;32.58;;;6.57;;
29358;SDS011;16347;53.232;6.556;2023-02-28T13:13:22;9.60;;;5.10;;
29358;SDS011;16347;53.232;6.556;2023-02-28T13:15:56;21.65;;;7.68;;
29358;SDS011;16347;53.232;6.556;2023-02-28T13:18:29;9.65;;;5.05;;
29358;SDS011;16347;53.232;6.556;2023-02-28T13:21:01;12.13;;;5.35;;
29358;SDS011;16347;53.232;6.556;2023-02-28T13:23:38;10.77;;;5.13;;
29358;SDS011;16347;53.232;6.556;2023-02-28T13:29:38;11.90;;;4.82;;
29358;SDS011;16347;53.232;6.556;2023-02-28T13:32:18;13.05;;;5.72;;
29358;SDS011;16347;53.232;6.556;2023-02-28T13:44:22;10.55;;;6.07;;
29358;SDS011;16347;53.232;6.556;2023-02-28T13:49:49;9.57;;;5.88;;
29358;SDS011;16347;53.232;6.556;2023-02-28T13:52:19;25.35;;;7.65;;
29358;SDS011;16347;53.232;6.556;2023-02-28T13:57:52;11.20;;;5.03;;
29358;SDS011;16347;53.232;6.556;2023-02-28T14:00:34;8.98;;;5.57;;
29358;SDS011;16347;53.232;6.556;2023-02-28T14:06:09;13.20;;;5.60;;
29358;SDS011;16347;53.232;6.556;2023-02-28T14:08:52;10.50;;;5.70;;
29358;SDS011;16347;53.232;6.556;2023-02-28T14:11:30;9.20;;;5.25;;
29358;SDS011;16347;53.232;6.556;2023-02-28T14:14:00;9.82;;;5.25;;
29358;SDS011;16347;53.232;6.556;2023-02-28T14:16:35;9.50;;;5.55;;
29358;SDS011;16347;53.232;6.556;2023-02-28T14:19:09;8.75;;;5.40;;
29358;SDS011;16347;53.232;6.556;2023-02-28T14:21:48;11.43;;;5.75;;
29358;SDS011;16347;53.232;6.556;2023-02-28T14:27:26;9.52;;;5.40;;
29358;SDS011;16347;53.232;6.556;2023-02-28T14:33:25;8.95;;;4.85;;
29358;SDS011;16347;53.232;6.556;2023-02-28T14:36:06;11.25;;;6.47;;
29358;SDS011;16347;53.232;6.556;2023-02-28T14:38:42;13.77;;;6.10;;
29358;SDS011;16347;53.232;6.556;2023-02-28T14:41:16;10.82;;;6.13;;
29358;SDS011;16347;53.232;6.556;2023-02-28T14:43:55;13.23;;;6.05;;
29358;SDS011;16347;53.232;6.556;2023-02-28T14:46:26;10.35;;;5.85;;
29358;SDS011;16347;53.232;6.556;2023-02-28T14:48:58;12.43;;;6.63;;
29358;SDS011;16347;53.232;6.556;2023-02-28T14:51:27;11.80;;;6.78;;
29358;SDS011;16347;53.232;6.556;2023-02-28T14:53:56;13.43;;;6.22;;
29358;SDS011;16347;53.232;6.556;2023-02-28T14:56:27;15.82;;;7.10;;
29358;SDS011;16347;53.232;6.556;2023-02-28T14:59:02;11.90;;;6.40;;
29358;SDS011;16347;53.232;6.556;2023-02-28T15:01:31;13.38;;;6.90;;
29358;SDS011;16347;53.232;6.556;2023-02-28T15:04:02;14.57;;;6.72;;
29358;SDS011;16347;53.232;6.556;2023-02-28T15:06:32;12.73;;;6.65;;
29358;SDS011;16347;53.232;6.556;2023-02-28T15:09:13;12.65;;;6.90;;
29358;SDS011;16347;53.232;6.556;2023-02-28T15:11:45;14.50;;;7.75;;
29358;SDS011;16347;53.232;6.556;2023-02-28T15:14:19;13.57;;;6.60;;
29358;SDS011;16347;53.232;6.556;2023-02-28T15:16:51;16.73;;;8.02;;
29358;SDS011;16347;53.232;6.556;2023-02-28T15:19:23;12.80;;;7.55;;
29358;SDS011;16347;53.232;6.556;2023-02-28T15:21:57;11.23;;;7.30;;
29358;SDS011;16347;53.232;6.556;2023-02-28T15:24:31;8.30;;;5.80;;
29358;SDS011;16347;53.232;6.556;2023-02-28T15:27:05;12.65;;;6.30;;
29358;SDS011;16347;53.232;6.556;2023-02-28T15:29:41;11.55;;;6.70;;
29358;SDS011;16347;53.232;6.556;2023-02-28T15:32:21;14.95;;;7.93;;
29358;SDS011;16347;53.232;6.556;2023-02-28T15:34:54;10.32;;;6.28;;
29358;SDS011;16347;53.232;6.556;2023-02-28T15:37:33;14.70;;;7.38;;
29358;SDS011;16347;53.232;6.556;2023-02-28T15:40:13;9.82;;;5.97;;
29358;SDS011;16347;53.232;6.556;2023-02-28T15:42:57;9.02;;;5.68;;
29358;SDS011;16347;53.232;6.556;2023-02-28T15:45:29;10.35;;;6.15;;
29358;SDS011;16347;53.232;6.556;2023-02-28T15:48:04;10.13;;;5.30;;
29358;SDS011;16347;53.232;6.556;2023-02-28T15:50:40;14.60;;;5.90;;
29358;SDS011;16347;53.232;6.556;2023-02-28T15:53:13;13.38;;;6.38;;
29358;SDS011;16347;53.232;6.556;2023-02-28T15:55:44;12.80;;;5.57;;
29358;SDS011;16347;53.232;6.556;2023-02-28T15:58:12;8.18;;;5.07;;
29358;SDS011;16347;53.232;6.556;2023-02-28T16:03:52;9.00;;;4.82;;
29358;SDS011;16347;53.232;6.556;2023-02-28T16:06:38;9.15;;;4.82;;